Time;durP1;ratioP1;P1;durP2;ratioP2;P2;SDS_P1;SDS_P2;PMS_P1;PMS_P2;Temp;Humidity;BMP_temperature;BMP_pressure;BME280_temperature;BME280_humidity;BME280_pressure;Samples;Min_cycle;Max_cycle;Signal;HPM_P1;HPM_P2
2023/03/27 00:02:02;;;;;;;0.43;0.43;;;;;;;10.64;62.00;98569.06;5116019;27;20190;-66
2023/03/27 00:04:29;;;;;;;0.50;0.50;;;;;;;10.30;61.35;98511.63;5132272;27;20190;-66
2023/03/27 00:06:56;;;;;;;0.60;0.60;;;;;;;10.54;61.25;98561.78;5122249;27;20674;-66
2023/03/27 00:09:24;;;;;;;0.50;0.50;;;;;;;10.50;61.28;98562.00;5129228;27;20206;-66
2023/03/27 00:11:54;;;;;;;0.40;0.40;;;;;;;10.48;61.91;98562.06;5117090;27;20197;-66
2023/03/27 00:14:22;;;;;;;0.70;0.70;;;;;;;10.37;62.55;98569.34;5128500;27;20194;-66
2023/03/27 00:16:49;;;;;;;0.50;0.50;;;;;;;10.37;62.53;98574.47;5128815;27;20195;-66
2023/03/27 00:19:17;;;;;;;0.67;0.67;;;;;;;10.38;62.26;98568.47;5128109;27;20259;-67
2023/03/27 00:21:44;;;;;;;0.60;0.60;;;;;;;10.38;62.66;98560.78;5122492;27;20376;-67
2023/03/27 00:24:11;;;;;;;0.60;0.60;;;;;;;10.37;62.43;98553.97;5121567;27;20202;-66
2023/03/27 00:26:39;;;;;;;0.50;0.50;;;;;;;10.36;62.38;98557.47;5126362;27;20214;-66
2023/03/27 00:29:07;;;;;;;0.50;0.50;;;;;;;10.30;62.30;98547.47;5119380;27;20289;-66
2023/03/27 00:31:34;;;;;;;0.93;0.93;;;;;;;10.28;62.27;98554.38;5121581;27;20198;-66
2023/03/27 00:34:01;;;;;;;0.50;0.50;;;;;;;10.25;62.59;98544.25;5122358;27;20194;-66
2023/03/27 00:36:28;;;;;;;0.60;0.60;;;;;;;10.09;62.66;98544.94;5121671;27;20198;-66
2023/03/27 00:38:55;;;;;;;0.57;0.57;;;;;;;10.06;62.98;98548.47;5113408;27;20190;-66
2023/03/27 00:41:22;;;;;;;0.40;0.40;;;;;;;9.95;63.24;98543.78;5121888;27;20203;-67
2023/03/27 00:43:52;;;;;;;0.60;0.60;;;;;;;9.73;63.28;98501.22;5129742;27;20728;-66
2023/03/27 00:46:39;;;;;;;0.40;0.40;;;;;;;10.03;63.40;98538.34;5121765;27;20661;-66
2023/03/27 00:49:09;;;;;;;0.40;0.40;;;;;;;10.05;63.91;98533.19;5127014;27;20194;-66
2023/03/27 00:51:38;;;;;;;0.57;0.57;;;;;;;10.07;63.75;98529.66;5132096;27;20281;-66
2023/03/27 00:54:06;;;;;;;0.57;0.57;;;;;;;9.97;63.39;98520.69;5122539;27;20271;-66
2023/03/27 00:56:37;;;;;;;0.70;0.70;;;;;;;9.86;62.88;98507.50;5120832;27;20757;-66
2023/03/27 00:59:09;;;;;;;0.40;0.40;;;;;;;9.86;63.69;98510.06;5132267;27;20658;-66
2023/03/27 01:01:38;;;;;;;0.50;0.50;;;;;;;9.86;63.01;98502.38;5124104;27;20199;-66
2023/03/27 01:04:07;;;;;;;0.60;0.60;;;;;;;9.83;63.07;98500.78;5123162;27;20198;-66
2023/03/27 01:06:35;;;;;;;0.50;0.50;;;;;;;9.73;63.49;98493.53;5126810;27;20214;-66
2023/03/27 01:09:03;;;;;;;0.60;0.60;;;;;;;9.67;64.37;98496.34;5113492;28;20662;-66
2023/03/27 01:11:44;;;;;;;0.80;0.80;;;;;;;9.52;65.10;98487.59;5112341;27;20199;-66
2023/03/27 01:14:25;;;;;;;0.50;0.50;;;;;;;9.36;66.52;98489.94;5128174;27;20195;-66
2023/03/27 01:17:11;;;;;;;0.60;0.60;;;;;;;9.39;67.37;98489.81;5117136;27;20547;-66
2023/03/27 01:20:08;;;;;;;0.50;0.50;;;;;;;9.35;68.15;98479.75;5127100;27;20201;-66
2023/03/27 01:23:07;;;;;;;0.60;0.60;;;;;;;9.37;68.67;98485.66;5111253;28;20198;-66
2023/03/27 01:26:02;;;;;;;0.40;0.40;;;;;;;9.33;68.52;98484.94;5109445;28;20198;-66
2023/03/27 01:28:38;;;;;;;0.60;0.60;;;;;;;9.43;68.42;98486.19;5111242;28;20194;-66
2023/03/27 01:31:16;;;;;;;0.50;0.50;;;;;;;9.55;67.99;98478.94;5113868;27;20209;-66
2023/03/27 01:34:16;;;;;;;0.67;0.67;;;;;;;9.48;67.59;98468.13;5129613;27;20193;-66
2023/03/27 01:37:05;;;;;;;0.50;0.50;;;;;;;9.56;67.24;98467.81;5105361;28;20193;-66
2023/03/27 01:39:39;;;;;;;0.60;0.60;;;;;;;9.61;67.28;98471.00;5132048;28;20198;-66
2023/03/27 01:42:15;;;;;;;0.47;0.47;;;;;;;9.64;67.52;98463.22;5130757;28;20237;-66
2023/03/27 01:44:48;;;;;;;0.50;0.50;;;;;;;9.70;67.71;98457.84;5116804;28;20230;-66
2023/03/27 01:47:26;;;;;;;0.50;0.50;;;;;;;9.74;67.60;98454.25;5111056;28;20210;-66
2023/03/27 01:50:00;;;;;;;0.50;0.50;;;;;;;9.73;67.83;98460.25;5125311;28;20193;-66
2023/03/27 01:52:30;;;;;;;0.60;0.60;;;;;;;9.75;68.07;98455.94;5110825;28;20548;-66
2023/03/27 01:55:03;;;;;;;0.60;0.60;;;;;;;9.78;68.39;98458.38;5112471;28;20243;-66
2023/03/27 01:57:36;;;;;;;0.60;0.60;;;;;;;9.81;67.85;98459.06;5111057;28;20203;-66
2023/03/27 02:00:11;;;;;;;0.60;0.60;;;;;;;9.84;68.29;98455.53;5113667;28;20250;-66
2023/03/27 02:02:41;;;;;;;0.53;0.53;;;;;;;9.84;67.31;98445.31;5125147;28;20723;-66
2023/03/27 02:05:12;;;;;;;0.60;0.60;;;;;;;9.84;67.10;98445.31;5117932;28;20190;-66
2023/03/27 02:07:43;;;;;;;0.50;0.50;;;;;;;9.80;67.04;98454.00;5117340;28;20206;-66
2023/03/27 02:10:16;;;;;;;0.60;0.60;;;;;;;9.80;66.34;98448.88;5123820;28;20195;-66
2023/03/27 02:12:50;;;;;;;0.50;0.50;;;;;;;9.83;67.05;98446.19;5111261;28;20203;-66
2023/03/27 02:15:20;;;;;;;0.60;0.60;;;;;;;9.73;67.64;98440.63;5110894;28;20206;-67
2023/03/27 02:17:52;;;;;;;0.50;0.50;;;;;;;9.74;67.63;98441.47;5115115;28;20262;-66
2023/03/27 02:20:19;;;;;;;0.60;0.60;;;;;;;9.74;67.69;98438.91;5122775;28;20205;-66
2023/03/27 02:22:47;;;;;;;0.50;0.50;;;;;;;9.77;68.31;98428.53;5121971;28;20228;-67
2023/03/27 02:25:25;;;;;;;0.60;0.60;;;;;;;9.70;68.41;98422.00;5110253;28;20207;-67
2023/03/27 02:27:59;;;;;;;0.50;0.50;;;;;;;9.62;69.17;98417.22;5125018;27;20313;-66
2023/03/27 02:30:34;;;;;;;0.50;0.50;;;;;;;9.59;69.52;98419.91;5114402;28;20820;-66
2023/03/27 02:33:13;;;;;;;0.40;0.40;;;;;;;9.56;69.98;98416.66;5124465;27;20651;-66
2023/03/27 02:35:48;;;;;;;0.67;0.67;;;;;;;9.48;70.46;98405.00;5124586;27;20276;-66
2023/03/27 02:38:22;;;;;;;0.70;0.70;;;;;;;9.46;71.04;98408.53;5114356;28;20201;-66
2023/03/27 02:40:57;;;;;;;0.60;0.60;;;;;;;9.47;70.58;98403.34;5118784;27;20199;-66
2023/03/27 02:43:30;;;;;;;0.57;0.57;;;;;;;9.33;71.46;98392.88;5120155;27;20199;-66
2023/03/27 02:46:05;;;;;;;0.53;0.53;;;;;;;9.15;72.06;98403.81;5114385;28;20195;-66
2023/03/27 02:48:34;;;;;;;0.50;0.50;;;;;;;9.14;72.17;98396.22;5128496;27;20194;-66
2023/03/27 02:51:04;;;;;;;0.67;0.67;;;;;;;9.20;72.15;98391.69;5117142;27;20190;-66
2023/03/27 02:53:37;;;;;;;0.40;0.40;;;;;;;9.24;71.79;98393.22;5122923;27;20195;-66
2023/03/27 02:56:09;;;;;;;0.70;0.70;;;;;;;9.24;70.93;98390.66;5135623;27;20267;-67
2023/03/27 02:58:41;;;;;;;0.43;0.43;;;;;;;9.23;70.61;98391.56;5134552;27;20197;-67
2023/03/27 03:01:12;;;;;;;0.50;0.50;;;;;;;9.20;70.20;98386.59;5126860;27;20229;-66
2023/03/27 03:03:42;;;;;;;0.50;0.50;;;;;;;9.14;70.33;98391.97;5122245;27;20203;-66
2023/03/27 03:06:10;;;;;;;0.60;0.60;;;;;;;9.12;70.28;98382.66;5129189;27;20222;-66
2023/03/27 03:08:38;;;;;;;0.60;0.60;;;;;;;9.05;69.48;98366.72;5125925;27;20254;-66
2023/03/27 03:11:09;;;;;;;0.50;0.50;;;;;;;9.21;69.79;98377.19;5134236;27;20725;-66
2023/03/27 03:13:37;;;;;;;0.73;0.73;;;;;;;9.22;69.30;98379.69;5126934;27;20198;-66
2023/03/27 03:16:04;;;;;;;0.60;0.60;;;;;;;9.24;69.49;98377.88;5134189;27;20547;-66
2023/03/27 03:18:31;;;;;;;0.57;0.57;;;;;;;9.30;68.92;98376.81;5116707;27;20696;-66
2023/03/27 03:20:58;;;;;;;0.50;0.50;;;;;;;9.34;68.61;98378.31;5116465;27;20198;-66
2023/03/27 03:23:25;;;;;;;0.50;0.50;;;;;;;9.30;68.40;98377.66;5128718;27;20728;-66
2023/03/27 03:25:55;;;;;;;0.50;0.50;;;;;;;9.26;68.70;98371.00;5122531;27;20255;-67
2023/03/27 03:28:24;;;;;;;0.60;0.60;;;;;;;9.16;69.11;98364.59;5131094;27;20213;-66
2023/03/27 03:30:52;;;;;;;0.40;0.40;;;;;;;9.07;68.92;98359.03;5125312;27;20205;-66
2023/03/27 03:33:19;;;;;;;0.60;0.60;;;;;;;9.08;69.12;98350.47;5134050;27;20198;-66
2023/03/27 03:35:47;;;;;;;0.50;0.50;;;;;;;9.14;69.33;98352.78;5133702;27;20198;-66
2023/03/27 03:38:23;;;;;;;0.50;0.50;;;;;;;9.01;70.02;98349.88;5122302;27;20338;-66
2023/03/27 03:40:51;;;;;;;0.60;0.60;;;;;;;8.86;70.52;98347.94;5122475;27;20187;-59
2023/03/27 03:43:18;;;;;;;0.50;0.50;;;;;;;8.85;71.30;98353.94;5125199;27;20600;-60
2023/03/27 03:45:46;;;;;;;0.67;0.67;;;;;;;8.87;70.90;98349.59;5119510;27;20198;-59
2023/03/27 03:48:13;;;;;;;0.67;0.67;;;;;;;8.81;71.44;98342.19;5123477;27;20274;-59
2023/03/27 03:50:40;;;;;;;0.50;0.50;;;;;;;8.68;71.89;98346.09;5129318;27;20247;-59
2023/03/27 03:53:06;;;;;;;0.60;0.60;;;;;;;8.69;71.97;98338.38;5114700;27;20194;-60
2023/03/27 03:55:33;;;;;;;0.57;0.57;;;;;;;8.83;71.73;98340.38;5121440;27;20669;-59
2023/03/27 03:58:00;;;;;;;0.40;0.40;;;;;;;8.80;71.85;98335.41;5112555;28;20689;-60
2023/03/27 04:00:27;;;;;;;0.60;0.60;;;;;;;8.87;71.24;98336.81;5117074;27;20190;-60
2023/03/27 04:02:55;;;;;;;0.60;0.60;;;;;;;8.89;71.85;98337.56;5112721;28;20213;-60
2023/03/27 04:05:23;;;;;;;0.70;0.70;;;;;;;8.92;71.25;98329.78;5128032;27;20292;-60
2023/03/27 04:07:50;;;;;;;0.60;0.60;;;;;;;8.84;71.44;98331.84;5122312;27;20683;-59
2023/03/27 04:10:17;;;;;;;0.60;0.60;;;;;;;8.84;71.74;98339.50;5112392;28;20209;-60
2023/03/27 04:12:47;;;;;;;0.63;0.63;;;;;;;8.78;71.77;98332.09;5127662;27;20202;-59
2023/03/27 04:15:14;;;;;;;0.50;0.50;;;;;;;8.81;72.95;98337.06;5124246;27;20281;-60
2023/03/27 04:17:41;;;;;;;0.50;0.50;;;;;;;8.86;73.33;98345.38;5131709;27;20225;-60
2023/03/27 04:20:11;;;;;;;0.50;0.50;;;;;;;8.89;73.24;98340.13;5132396;27;20224;-60
2023/03/27 04:22:38;;;;;;;0.70;0.70;;;;;;;8.92;72.77;98340.00;5112438;28;20198;-60
2023/03/27 04:25:06;;;;;;;0.53;0.53;;;;;;;8.98;72.35;98327.00;5112293;28;20194;-60
2023/03/27 04:27:34;;;;;;;1.20;1.20;;;;;;;9.04;71.73;98320.81;5132191;27;20206;-60
2023/03/27 04:30:02;;;;;;;0.57;0.57;;;;;;;8.99;72.43;98320.97;5132662;27;20198;-60
2023/03/27 04:32:30;;;;;;;0.40;0.40;;;;;;;8.98;72.33;98314.22;5122086;27;20666;-60
2023/03/27 04:34:57;;;;;;;0.50;0.50;;;;;;;8.98;72.39;98313.38;5116822;27;20198;-60
2023/03/27 04:37:25;;;;;;;0.50;0.50;;;;;;;8.94;73.45;98318.63;5128070;27;20653;-60
2023/03/27 04:39:52;;;;;;;0.63;0.63;;;;;;;8.90;72.85;98308.59;5132829;27;20665;-60
2023/03/27 04:42:21;;;;;;;0.70;0.70;;;;;;;9.06;72.56;98322.41;5115491;27;20190;-60
2023/03/27 04:44:49;;;;;;;0.50;0.50;;;;;;;9.09;73.05;98332.50;5113200;27;20442;-64
2023/03/27 04:47:16;;;;;;;0.60;0.60;;;;;;;9.19;73.87;98328.66;5124299;27;20442;-66
2023/03/27 04:49:45;;;;;;;0.60;0.60;;;;;;;9.30;72.73;98310.31;5118762;27;20202;-65
2023/03/27 04:52:13;;;;;;;0.40;0.40;;;;;;;9.26;73.32;98303.66;5123489;27;20657;-65
2023/03/27 04:54:42;;;;;;;0.40;0.40;;;;;;;9.07;73.80;98305.34;5117053;27;20199;-65
2023/03/27 04:57:09;;;;;;;0.60;0.60;;;;;;;9.24;72.94;98300.34;5116986;27;20198;-66
2023/03/27 04:59:36;;;;;;;0.50;0.50;;;;;;;9.39;72.50;98295.41;5112500;27;20190;-65
2023/03/27 05:02:05;;;;;;;0.60;0.60;;;;;;;9.48;71.94;98305.25;5118814;27;20207;-66
2023/03/27 05:04:32;;;;;;;0.60;0.60;;;;;;;9.63;71.30;98313.97;5125288;27;21940;-66
2023/03/27 05:07:01;;;;;;;0.60;0.60;;;;;;;9.62;70.91;98270.56;5119222;27;20271;-64
2023/03/27 05:09:27;;;;;;;0.47;0.47;;;;;;;9.77;71.19;98308.25;5121567;27;20205;-64
2023/03/27 05:11:56;;;;;;;0.60;0.60;;;;;;;9.88;71.04;98308.63;5118857;27;20687;-64
2023/03/27 05:14:23;;;;;;;0.50;0.50;;;;;;;10.02;71.31;98316.50;5122475;27;20217;-64
2023/03/27 05:16:51;;;;;;;0.60;0.60;;;;;;;10.10;71.46;98323.84;5121377;27;20266;-64
2023/03/27 05:19:19;;;;;;;0.43;0.43;;;;;;;10.23;71.67;98318.13;5121578;27;20197;-67
2023/03/27 05:21:46;;;;;;;0.63;0.63;;;;;;;10.38;71.45;98314.00;5124555;27;20198;-63
2023/03/27 05:24:14;;;;;;;0.73;0.73;;;;;;;10.50;70.84;98304.00;5124444;27;20205;-63
2023/03/27 05:26:41;;;;;;;0.70;0.70;;;;;;;10.56;70.38;98302.09;5126589;27;20206;-64
2023/03/27 05:29:10;;;;;;;0.50;0.50;;;;;;;10.32;71.68;98289.53;5126250;27;20225;-63
2023/03/27 05:31:37;;;;;;;0.80;0.80;;;;;;;10.12;73.50;98281.06;5129554;27;20648;-63
2023/03/27 05:34:04;;;;;;;0.87;0.87;;;;;;;10.02;74.95;98288.34;5121243;28;20566;-63
2023/03/27 05:36:31;;;;;;;0.50;0.50;;;;;;;9.96;76.78;98286.06;5115640;28;20755;-63
2023/03/27 05:38:58;;;;;;;0.50;0.50;;;;;;;9.96;76.99;98296.28;5124885;28;20247;-63
2023/03/27 05:41:25;;;;;;;0.60;0.60;;;;;;;10.01;78.31;98299.50;5124028;28;20201;-64
2023/03/27 05:43:52;;;;;;;0.50;0.50;;;;;;;10.22;79.13;98288.28;5130057;28;20543;-63
2023/03/27 05:46:21;;;;;;;0.40;0.40;;;;;;;10.05;80.12;98275.38;5126909;27;20213;-63
2023/03/27 05:48:48;;;;;;;0.50;0.50;;;;;;;10.11;81.86;98279.41;5124854;27;20214;-63
2023/03/27 05:51:15;;;;;;;0.50;0.50;;;;;;;10.31;81.13;98281.91;5118620;28;20203;-63
2023/03/27 05:53:42;;;;;;;0.60;0.60;;;;;;;10.68;81.27;98288.69;5119763;27;20609;-64
2023/03/27 05:56:09;;;;;;;0.50;0.50;;;;;;;11.07;79.68;98281.59;5121895;27;20229;-64
2023/03/27 05:58:36;;;;;;;0.40;0.40;;;;;;;11.35;78.45;98269.03;5125402;27;20212;-63
2023/03/27 06:01:03;;;;;;;0.50;0.50;;;;;;;11.49;77.89;98269.16;5118262;28;20205;-62
2023/03/27 06:03:34;;;;;;;0.50;0.50;;;;;;;11.62;78.13;98271.91;5120838;27;20202;-63
2023/03/27 06:06:01;;;;;;;0.50;0.50;;;;;;;11.86;77.16;98269.81;5129470;27;20202;-63
2023/03/27 06:08:28;;;;;;;0.40;0.40;;;;;;;11.88;78.49;98268.84;5129245;27;20214;-64
2023/03/27 06:10:56;;;;;;;0.43;0.43;;;;;;;11.75;79.32;98261.88;5130843;27;20198;-64
2023/03/27 06:13:23;;;;;;;0.63;0.63;;;;;;;11.54;80.91;98267.19;5125813;27;20220;-64
2023/03/27 06:15:52;;;;;;;0.60;0.60;;;;;;;11.38;81.85;98250.09;5126674;27;20198;-64
2023/03/27 06:18:19;;;;;;;0.70;0.70;;;;;;;11.40;82.88;98249.13;5120906;27;20632;-64
2023/03/27 06:20:47;;;;;;;0.57;0.57;;;;;;;11.36;83.75;98239.91;5118133;27;20205;-64
2023/03/27 06:23:14;;;;;;;0.57;0.57;;;;;;;11.31;83.43;98239.31;5126878;27;20255;-64
2023/03/27 06:25:42;;;;;;;0.50;0.50;;;;;;;11.27;83.84;98235.25;5128656;27;20263;-64
2023/03/27 06:28:11;;;;;;;0.70;0.70;;;;;;;11.22;84.46;98238.94;5126086;27;20250;-62
2023/03/27 06:30:37;;;;;;;0.60;0.60;;;;;;;11.05;85.98;98229.53;5122110;27;20593;-64
2023/03/27 06:33:06;;;;;;;0.60;0.60;;;;;;;11.09;86.26;98241.31;5122821;27;20205;-63
2023/03/27 06:35:34;;;;;;;0.60;0.60;;;;;;;11.25;86.47;98221.66;5125675;27;20207;-63
2023/03/27 06:38:02;;;;;;;0.50;0.50;;;;;;;11.33;87.46;98229.81;5116679;27;20597;-64
2023/03/27 06:40:31;;;;;;;0.60;0.60;;;;;;;11.36;88.61;98219.38;5127441;27;20194;-63
2023/03/27 06:42:59;;;;;;;0.90;0.90;;;;;;;11.51;89.17;98226.28;5129710;27;20194;-63
2023/03/27 06:45:27;;;;;;;0.60;0.60;;;;;;;11.86;88.25;98229.56;5127038;27;20270;-62
2023/03/27 06:47:56;;;;;;;0.60;0.60;;;;;;;12.25;86.94;98226.56;5123037;27;20648;-62
2023/03/27 06:50:24;;;;;;;0.50;0.50;;;;;;;12.27;86.05;98227.31;5124548;27;20201;-64
2023/03/27 06:52:50;;;;;;;0.50;0.50;;;;;;;12.44;85.72;98222.03;5119812;27;20654;-64
2023/03/27 06:55:20;;;;;;;0.50;0.50;;;;;;;12.50;85.05;98216.56;5128694;27;20304;-64
2023/03/27 06:57:49;;;;;;;0.50;0.50;;;;;;;12.61;85.24;98209.06;5117049;27;21040;-63
2023/03/27 07:00:18;;;;;;;0.50;0.50;;;;;;;12.78;85.75;98195.25;5119948;27;20195;-64
2023/03/27 07:02:46;;;;;;;0.50;0.50;;;;;;;12.85;85.03;98201.69;5124574;27;20632;-64
2023/03/27 07:05:13;;;;;;;0.60;0.60;;;;;;;12.92;85.41;98194.44;5118015;27;20694;-65
2023/03/27 07:07:40;;;;;;;0.40;0.40;;;;;;;13.02;84.51;98187.84;5119558;27;20289;-62
2023/03/27 07:10:08;;;;;;;0.40;0.40;;;;;;;13.03;85.37;98174.88;5125287;27;20202;-64
2023/03/27 07:12:37;;;;;;;0.70;0.70;;;;;;;13.01;85.06;98151.00;5117480;27;20305;-64
2023/03/27 07:15:05;;;;;;;0.53;0.53;;;;;;;13.07;86.11;98124.06;5121286;27;20209;-63
2023/03/27 07:17:32;;;;;;;1.73;1.63;;;;;;;13.33;86.51;98114.78;5120237;27;20218;-62
2023/03/27 07:19:59;;;;;;;0.80;0.80;;;;;;;13.65;85.39;98109.28;5118825;27;20211;-62
2023/03/27 07:22:26;;;;;;;1.17;1.17;;;;;;;13.85;84.64;98102.06;5118188;27;20206;-62
2023/03/27 07:24:53;;;;;;;0.60;0.60;;;;;;;13.62;84.82;98034.00;5119385;27;20675;-62
2023/03/27 07:27:20;;;;;;;0.70;0.70;;;;;;;14.00;85.48;98060.66;5120580;27;20760;-62
2023/03/27 07:29:48;;;;;;;0.60;0.60;;;;;;;13.94;84.53;98060.25;5123762;27;20286;-62
2023/03/27 07:32:15;;;;;;;0.40;0.40;;;;;;;13.95;85.34;98046.44;5125558;27;20201;-63
2023/03/27 07:34:42;;;;;;;0.50;0.50;;;;;;;14.02;86.05;98050.28;5122964;27;20244;-63
2023/03/27 07:37:10;;;;;;;0.47;0.47;;;;;;;14.07;85.35;98050.78;5120557;27;20196;-63
2023/03/27 07:39:36;;;;;;;0.60;0.60;;;;;;;14.00;87.02;98029.75;5118510;27;20191;-64
2023/03/27 07:42:03;;;;;;;0.50;0.50;;;;;;;14.00;86.60;98008.31;5111347;27;20199;-63
2023/03/27 07:44:30;;;;;;;0.57;0.57;;;;;;;13.89;87.82;97988.44;5112355;27;20276;-63
2023/03/27 07:46:59;;;;;;;0.60;0.60;;;;;;;13.82;87.98;97989.75;5117671;27;20278;-63
2023/03/27 07:49:26;;;;;;;0.40;0.40;;;;;;;13.92;88.69;97990.81;5113950;27;20246;-62
2023/03/27 07:51:53;;;;;;;0.90;0.90;;;;;;;14.00;88.60;97995.44;5113542;27;20195;-62
2023/03/27 07:54:20;;;;;;;0.50;0.50;;;;;;;13.85;88.13;97958.63;5115646;27;20267;-63
2023/03/27 07:56:47;;;;;;;0.73;0.73;;;;;;;14.01;89.54;97963.59;5115600;27;20316;-63
2023/03/27 07:59:14;;;;;;;0.97;0.97;;;;;;;13.97;88.20;97957.81;5121598;27;20281;-62
2023/03/27 08:01:41;;;;;;;0.70;0.70;;;;;;;14.08;88.08;97954.53;5112615;27;20198;-63
2023/03/27 08:04:10;;;;;;;0.60;0.60;;;;;;;14.24;87.89;97962.88;5118662;27;20606;-63
2023/03/27 08:06:37;;;;;;;0.60;0.60;;;;;;;14.18;87.39;97960.72;5124245;27;20202;-63
2023/03/27 08:09:04;;;;;;;0.70;0.70;;;;;;;14.25;87.83;97964.50;5120985;27;20239;-64
2023/03/27 08:11:31;;;;;;;1.27;1.17;;;;;;;14.36;87.29;97958.66;5118556;27;20201;-63
2023/03/27 08:13:58;;;;;;;0.70;0.70;;;;;;;14.30;87.73;97962.47;5123184;27;20670;-63
2023/03/27 08:16:28;;;;;;;0.50;0.50;;;;;;;14.30;88.20;97959.88;5118431;27;20255;-73
2023/03/27 08:18:55;;;;;;;0.70;0.70;;;;;;;14.32;88.95;97957.19;5119588;27;20290;-63
2023/03/27 08:21:23;;;;;;;0.47;0.47;;;;;;;14.39;88.88;97954.13;5113082;27;20212;-63
2023/03/27 08:23:50;;;;;;;1.20;1.20;;;;;;;14.55;89.17;97944.41;5113815;27;20199;-64
2023/03/27 08:26:17;;;;;;;1.20;1.20;;;;;;;14.72;88.56;97938.06;5111889;27;20198;-62
2023/03/27 08:28:44;;;;;;;0.77;0.77;;;;;;;14.84;88.09;97933.78;5114515;27;20705;-63
2023/03/27 08:31:13;;;;;;;0.50;0.50;;;;;;;14.89;87.71;97917.09;5111022;27;20631;-63
2023/03/27 08:33:41;;;;;;;0.50;0.50;;;;;;;14.95;87.61;97905.50;5123111;27;20557;-62
2023/03/27 08:36:10;;;;;;;0.60;0.60;;;;;;;15.03;88.12;97905.75;5121913;27;20689;-64
2023/03/27 08:38:38;;;;;;;0.70;0.70;;;;;;;15.09;89.61;97902.72;5111582;28;20297;-63
2023/03/27 08:41:06;;;;;;;0.60;0.60;;;;;;;15.44;88.25;97890.69;5111543;28;20250;-63
2023/03/27 08:43:37;;;;;;;0.60;0.60;;;;;;;15.87;87.18;97884.91;5121478;27;20205;-63
2023/03/27 08:46:08;;;;;;;0.60;0.60;;;;;;;16.13;85.07;97878.56;5114143;27;20669;-62
2023/03/27 08:48:39;;;;;;;1.30;1.30;;;;;;;16.17;83.24;97867.06;5128997;27;20210;-62
2023/03/27 08:51:09;;;;;;;0.63;0.63;;;;;;;16.53;84.03;97861.63;5112058;28;20272;-63
2023/03/27 08:53:43;;;;;;;0.50;0.50;;;;;;;16.91;81.40;97862.97;5111869;28;20198;-63
2023/03/27 08:56:14;;;;;;;0.63;0.63;;;;;;;17.16;80.25;97849.66;5111780;28;20221;-62
2023/03/27 08:58:41;;;;;;;1.60;0.83;;;;;;;17.29;78.16;97848.56;5112784;27;20190;-64
2023/03/27 09:01:17;;;;;;;0.43;0.43;;;;;;;17.55;78.96;97849.03;5120523;27;20190;-63
2023/03/27 09:03:50;;;;;;;1.07;1.07;;;;;;;17.77;76.11;97848.88;5121088;27;20194;-62
2023/03/27 09:06:25;;;;;;;0.50;0.50;;;;;;;17.79;74.89;97852.19;5118261;27;20229;-61
2023/03/27 09:09:01;;;;;;;0.87;0.87;;;;;;;17.72;75.66;97840.69;5111184;28;20243;-62
2023/03/27 09:11:38;;;;;;;0.60;0.60;;;;;;;17.68;75.42;97834.09;5111389;27;20201;-63
2023/03/27 09:14:14;;;;;;;0.90;0.90;;;;;;;17.77;76.10;97815.19;5126412;27;20201;-66
2023/03/27 09:16:47;;;;;;;0.70;0.70;;;;;;;17.96;74.75;97795.50;5120232;27;20207;-62
2023/03/27 09:19:24;;;;;;;0.43;0.43;;;;;;;18.43;71.66;97805.16;5114163;27;20194;-63
2023/03/27 09:21:56;;;;;;;0.50;0.50;;;;;;;18.53;70.60;97789.66;5121082;27;20748;-63
2023/03/27 09:24:29;;;;;;;0.50;0.50;;;;;;;18.36;71.04;97753.00;5119032;27;20202;-62
2023/03/27 09:26:57;;;;;;;0.40;0.40;;;;;;;18.44;70.54;97780.03;5123398;27;20205;-62
2023/03/27 09:29:28;;;;;;;0.50;0.50;;;;;;;18.48;68.56;97787.41;5120501;27;20317;-63
2023/03/27 09:31:57;;;;;;;0.50;0.50;;;;;;;18.79;69.20;97776.00;5111673;27;20198;-62
2023/03/27 09:34:26;;;;;;;0.50;0.50;;;;;;;18.98;68.06;97784.72;5115051;27;20198;-63
2023/03/27 09:36:54;;;;;;;0.67;0.67;;;;;;;19.21;65.64;97786.09;5112039;28;20210;-63
2023/03/27 09:39:28;;;;;;;0.50;0.50;;;;;;;19.51;64.31;97791.13;5124553;27;20307;-63
2023/03/27 09:41:59;;;;;;;0.50;0.50;;;;;;;19.83;62.88;97788.13;5115346;28;20203;-63
2023/03/27 09:44:29;;;;;;;0.50;0.50;;;;;;;19.87;61.10;97789.50;5118288;28;20666;-62
2023/03/27 09:47:01;;;;;;;0.30;0.30;;;;;;;19.78;59.14;97790.31;5120745;28;20590;-62
2023/03/27 09:49:28;;;;;;;0.37;0.37;;;;;;;19.66;59.04;97784.50;5117689;27;20234;-62
2023/03/27 09:51:57;;;;;;;0.33;0.33;;;;;;;19.67;59.06;97778.34;5121156;27;20204;-62
2023/03/27 09:54:27;;;;;;;0.40;0.40;;;;;;;19.68;59.12;97773.94;5120372;27;20257;-63
2023/03/27 09:56:58;;;;;;;0.50;0.50;;;;;;;19.58;57.88;97767.97;5122090;28;20250;-63
2023/03/27 09:59:28;;;;;;;0.63;0.63;;;;;;;19.62;56.59;97770.13;5129816;28;20682;-62
2023/03/27 10:01:57;;;;;;;0.40;0.40;;;;;;;19.67;55.66;97778.34;5118528;27;20243;-63
2023/03/27 10:04:26;;;;;;;0.90;0.90;;;;;;;19.73;56.14;97772.56;5124045;28;20241;-63
2023/03/27 10:07:00;;;;;;;0.73;0.73;;;;;;;19.75;56.17;97785.41;5122448;27;20295;-63
2023/03/27 10:09:30;;;;;;;0.40;0.40;;;;;;;19.82;55.52;97766.50;5119793;28;20308;-63
2023/03/27 10:12:04;;;;;;;0.50;0.50;;;;;;;20.04;53.55;97780.09;5129088;28;20652;-63
2023/03/27 10:14:34;;;;;;;0.30;0.30;;;;;;;20.13;53.79;97779.25;5122181;28;20208;-63
2023/03/27 10:17:03;;;;;;;0.40;0.40;;;;;;;20.21;53.52;97767.13;5118565;27;20196;-63
2023/03/27 10:19:34;;;;;;;0.37;0.37;;;;;;;20.37;54.84;97756.09;5130767;27;20692;-63
2023/03/27 10:22:10;;;;;;;0.53;0.53;;;;;;;20.49;53.86;97760.13;5130609;27;20199;-63
2023/03/27 10:24:39;;;;;;;0.50;0.50;;;;;;;20.58;51.06;97758.44;5131138;27;20214;-63
2023/03/27 10:27:10;;;;;;;0.40;0.40;;;;;;;20.70;49.44;97747.66;5114643;27;20280;-63
2023/03/27 10:29:37;;;;;;;0.40;0.40;;;;;;;20.81;51.03;97739.59;5114063;28;20301;-64
2023/03/27 10:32:06;;;;;;;0.83;0.50;;;;;;;20.87;50.39;97738.19;5121137;28;20206;-64
2023/03/27 10:34:36;;;;;;;0.70;0.70;;;;;;;20.95;50.46;97739.06;5123558;28;20698;-64
2023/03/27 10:37:18;;;;;;;0.40;0.40;;;;;;;20.99;52.36;97741.34;5123260;27;20206;-64
2023/03/27 10:39:47;;;;;;;0.43;0.43;;;;;;;21.05;54.21;97730.31;5116202;27;20711;-64
2023/03/27 10:42:16;;;;;;;0.30;0.30;;;;;;;20.98;56.75;97711.88;5130181;28;20280;-64
2023/03/27 10:44:44;;;;;;;0.87;0.87;;;;;;;21.11;53.65;97727.13;5126374;27;20229;-64
2023/03/27 10:47:18;;;;;;;0.57;0.57;;;;;;;21.13;56.34;97722.59;5121339;28;20200;-64
2023/03/27 10:49:48;;;;;;;0.30;0.30;;;;;;;21.11;56.28;97716.72;5129581;27;20216;-64
2023/03/27 10:52:22;;;;;;;0.73;0.73;;;;;;;21.03;57.68;97714.03;5119627;27;20192;-64
2023/03/27 10:55:02;;;;;;;0.50;0.50;;;;;;;20.82;60.34;97715.19;5124348;27;20207;-64
2023/03/27 10:57:30;;;;;;;0.50;0.50;;;;;;;20.65;59.85;97697.78;5130106;27;20256;-64
2023/03/27 11:00:06;;;;;;;0.50;0.50;;;;;;;20.57;60.18;97695.13;5132749;27;20716;-64
2023/03/27 11:02:38;;;;;;;0.50;0.50;;;;;;;20.32;60.58;97690.69;5117418;27;20206;-63
2023/03/27 11:05:10;;;;;;;0.50;0.50;;;;;;;20.14;60.87;97680.22;5115727;27;20290;-64
2023/03/27 11:07:42;;;;;;;0.30;0.30;;;;;;;20.00;62.05;97675.50;5118884;27;20213;-64
2023/03/27 11:10:17;;;;;;;0.50;0.50;;;;;;;19.97;63.52;97669.81;5133773;27;20654;-64
2023/03/27 11:12:51;;;;;;;0.50;0.50;;;;;;;20.07;65.79;97650.56;5113103;28;20195;-64
2023/03/27 11:15:22;;;;;;;0.83;0.83;;;;;;;20.03;64.16;97601.59;5129309;27;20195;-64
2023/03/27 11:17:54;;;;;;;0.30;0.30;;;;;;;20.49;63.29;97613.53;5133552;27;20202;-64
2023/03/27 11:20:26;;;;;;;0.50;0.50;;;;;;;20.81;66.08;97605.94;5133252;27;20215;-64
2023/03/27 11:22:59;;;;;;;0.50;0.50;;;;;;;21.05;61.23;97600.06;5121272;27;20208;-64
2023/03/27 11:25:37;;;;;;;0.53;0.53;;;;;;;21.18;56.24;97590.06;5113398;28;20623;-64
2023/03/27 11:28:14;;;;;;;0.50;0.50;;;;;;;21.40;56.82;97568.63;5131475;27;20216;-64
2023/03/27 11:30:45;;;;;;;2.83;0.70;;;;;;;21.58;52.26;97573.75;5130844;27;20603;-64
2023/03/27 11:33:24;;;;;;;0.30;0.30;;;;;;;21.67;51.64;97555.34;5120720;27;20198;-64
2023/03/27 11:35:57;;;;;;;0.30;0.30;;;;;;;21.83;53.25;97555.38;5121934;27;20209;-64
2023/03/27 11:38:28;;;;;;;0.40;0.40;;;;;;;22.07;52.59;97532.94;5125392;27;20206;-64
2023/03/27 11:40:56;;;;;;;0.60;0.60;;;;;;;22.17;49.94;97515.28;5131117;27;20194;-63
2023/03/27 11:43:24;;;;;;;0.57;0.57;;;;;;;22.27;46.47;97515.94;5131307;27;20224;-64
2023/03/27 11:46:02;;;;;;;0.40;0.40;;;;;;;22.59;45.71;97509.81;5123429;27;20621;-64
2023/03/27 11:48:45;;;;;;;0.33;0.33;;;;;;;22.69;43.95;97506.09;5123052;27;20206;-64
2023/03/27 11:51:22;;;;;;;0.30;0.30;;;;;;;22.87;44.46;97493.63;5121709;27;20206;-64